Time;durP1;ratioP1;P1;durP2;ratioP2;P2;SDS_P1;SDS_P2;PMS_P1;PMS_P2;Temp;Humidity;BMP_temperature;BMP_pressure;BME280_temperature;BME280_humidity;BME280_pressure;Samples;Min_cycle;Max_cycle;Signal;HPM_P1;HPM_P2
2023/03/29 00:00:13;;;;;;;5.72;4.45;;;;;;;-0.44;54.12;95129.72;5130424;27;20389;-73
2023/03/29 00:02:42;;;;;;;4.75;3.72;;;;;;;-0.19;54.30;95173.09;5121155;27;20032;-74
2023/03/29 00:05:08;;;;;;;5.82;4.20;;;;;;;-0.28;54.08;95168.31;5116080;27;20109;-73
2023/03/29 00:07:34;;;;;;;7.50;3.90;;;;;;;-0.24;54.42;95162.22;5096709;28;20091;-73
2023/03/29 00:10:00;;;;;;;5.38;3.70;;;;;;;-0.12;53.77;95166.06;5095636;28;20131;-73
2023/03/29 00:12:26;;;;;;;5.95;4.45;;;;;;;-0.17;54.10;95170.47;5113363;28;20037;-73
2023/03/29 00:14:51;;;;;;;6.70;4.22;;;;;;;-0.18;53.73;95169.66;5094954;28;20417;-73
2023/03/29 00:17:17;;;;;;;5.53;4.30;;;;;;;-0.15;53.48;95172.09;5113220;28;20034;-73
2023/03/29 00:19:46;;;;;;;5.60;3.90;;;;;;;-0.27;53.61;95164.88;5095656;28;20413;-74
2023/03/29 00:22:12;;;;;;;7.10;4.03;;;;;;;-0.39;52.98;95137.22;5095997;28;20081;-73
2023/03/29 00:24:37;;;;;;;5.13;3.90;;;;;;;-0.23;53.24;95164.69;5095262;28;20035;-73
2023/03/29 00:27:03;;;;;;;5.82;4.25;;;;;;;-0.25;53.47;95151.19;5112265;28;20552;-73
2023/03/29 00:29:28;;;;;;;5.50;3.65;;;;;;;-0.27;53.16;95142.72;5095598;28;20502;-73
2023/03/29 00:31:54;;;;;;;8.93;4.55;;;;;;;-0.10;53.17;95154.91;5078579;28;20439;-73
2023/03/29 00:34:21;;;;;;;6.47;4.50;;;;;;;-0.12;53.10;95150.72;5113474;28;20054;-73
2023/03/29 00:36:49;;;;;;;5.57;3.78;;;;;;;-0.08;52.11;95152.31;5095532;28;20040;-73
2023/03/29 00:39:16;;;;;;;6.53;4.20;;;;;;;-0.13;52.26;95152.47;5112586;28;20124;-73
2023/03/29 00:41:46;;;;;;;6.50;4.50;;;;;;;-0.30;52.45;95142.00;5094538;28;21457;-73
2023/03/29 00:44:49;;;;;;;6.70;4.00;;;;;;;-0.17;51.53;95158.53;5078488;28;20028;-73
2023/03/29 00:47:16;;;;;;;7.05;3.67;;;;;;;-0.48;51.12;95112.84;5113832;28;20141;-73
2023/03/29 00:49:43;;;;;;;5.13;3.97;;;;;;;-0.25;50.85;95150.34;5076560;28;20035;-73
2023/03/29 00:52:09;;;;;;;5.00;3.78;;;;;;;-0.36;51.09;95127.75;5088642;28;20027;-73
2023/03/29 00:54:36;;;;;;;8.70;4.20;;;;;;;-0.30;51.37;95150.50;5094596;28;20532;-73
2023/03/29 00:57:02;;;;;;;8.18;4.10;;;;;;;-0.17;50.82;95156.00;5112526;27;20024;-73
2023/03/29 00:59:28;;;;;;;6.55;3.95;;;;;;;-0.34;51.07;95150.66;5111562;27;20096;-73
2023/03/29 01:01:58;;;;;;;7.72;4.72;;;;;;;-0.35;50.95;95154.94;5078230;28;20032;-74
2023/03/29 01:04:24;;;;;;;8.90;4.93;;;;;;;-0.28;51.02;95152.97;5094740;28;20055;-73
2023/03/29 01:07:27;;;;;;;5.75;4.18;;;;;;;-0.28;50.73;95145.31;5113629;28;20043;-73
2023/03/29 01:10:22;;;;;;;5.53;3.70;;;;;;;-0.32;50.87;95157.38;5106848;28;20116;-73
2023/03/29 01:12:50;;;;;;;5.43;4.28;;;;;;;-0.64;51.79;95111.69;5107243;28;20067;-73
2023/03/29 01:15:21;;;;;;;4.78;3.40;;;;;;;-0.52;51.41;95173.38;5094793;28;20039;-73
2023/03/29 01:17:52;;;;;;;5.38;4.07;;;;;;;-0.65;51.63;95140.66;5087560;28;20039;-73
2023/03/29 01:20:18;;;;;;;4.63;3.65;;;;;;;-0.52;51.74;95163.16;5091290;28;20039;-73
2023/03/29 01:22:53;;;;;;;4.75;3.67;;;;;;;-0.58;51.71;95168.47;5091747;28;20032;-74
2023/03/29 01:25:27;;;;;;;4.47;3.72;;;;;;;-0.53;51.78;95168.31;5110765;28;20115;-73
2023/03/29 01:28:07;;;;;;;5.75;3.83;;;;;;;-0.56;51.70;95169.25;5111393;28;20031;-73
2023/03/29 01:30:45;;;;;;;5.53;4.13;;;;;;;-0.65;51.62;95151.69;5095117;28;20540;-74
2023/03/29 01:33:22;;;;;;;6.82;4.20;;;;;;;-0.46;51.97;95172.34;5129076;27;20038;-73
2023/03/29 01:35:56;;;;;;;5.68;3.90;;;;;;;-0.59;52.13;95155.75;5110876;28;20307;-73
2023/03/29 01:38:47;;;;;;;5.10;3.67;;;;;;;-0.54;51.67;95169.22;5093154;28;20035;-73
2023/03/29 01:41:13;;;;;;;5.93;4.20;;;;;;;-0.65;51.70;95153.41;5099761;28;20409;-74
2023/03/29 01:43:44;;;;;;;7.85;4.05;;;;;;;-0.63;52.01;95172.91;5090769;28;20032;-73
2023/03/29 01:46:27;;;;;;;5.50;3.80;;;;;;;-0.63;51.70;95167.81;5109271;28;20027;-73
2023/03/29 01:48:55;;;;;;;4.60;3.70;;;;;;;-0.63;51.53;95175.47;5094769;28;20089;-73
2023/03/29 01:51:28;;;;;;;4.90;3.90;;;;;;;-0.53;51.83;95175.97;5094074;28;20031;-73
2023/03/29 01:53:59;;;;;;;5.05;3.80;;;;;;;-0.66;51.81;95146.66;5110533;28;20031;-73
2023/03/29 01:56:27;;;;;;;6.15;3.65;;;;;;;-0.50;51.81;95171.63;5111551;28;20030;-73
2023/03/29 01:58:55;;;;;;;4.68;3.60;;;;;;;-0.49;51.76;95172.44;5094915;28;20489;-73
2023/03/29 02:01:24;;;;;;;5.53;4.03;;;;;;;-0.55;51.72;95163.28;5094823;28;20042;-73
2023/03/29 02:03:53;;;;;;;4.57;3.45;;;;;;;-0.66;51.79;95165.34;5127008;27;20024;-73
2023/03/29 02:06:21;;;;;;;5.15;3.67;;;;;;;-0.72;51.82;95150.25;5110801;28;20047;-73
2023/03/29 02:08:46;;;;;;;6.13;3.70;;;;;;;-0.55;52.07;95176.03;5111270;27;20533;-73
2023/03/29 02:11:12;;;;;;;5.68;3.80;;;;;;;-0.62;51.81;95176.28;5110467;28;20032;-73
2023/03/29 02:13:38;;;;;;;7.38;3.90;;;;;;;-0.70;51.93;95171.44;5093612;28;20035;-74
2023/03/29 02:16:08;;;;;;;6.20;4.10;;;;;;;-0.69;51.96;95184.16;5093471;28;20089;-73
2023/03/29 02:18:34;;;;;;;5.38;3.80;;;;;;;-0.69;51.41;95181.59;5094176;28;20031;-73
2023/03/29 02:20:59;;;;;;;4.93;3.65;;;;;;;-0.69;51.28;95176.50;5110006;28;20023;-73
2023/03/29 02:23:37;;;;;;;5.25;3.80;;;;;;;-0.60;51.29;95164.31;5093532;28;20031;-73
2023/03/29 02:26:05;;;;;;;5.15;3.63;;;;;;;-0.59;50.81;95182.13;5110905;28;20032;-73
2023/03/29 02:28:32;;;;;;;5.10;4.00;;;;;;;-0.57;50.66;95174.41;5110649;28;20424;-73
2023/03/29 02:31:20;;;;;;;4.70;3.60;;;;;;;-0.62;50.93;95194.97;5093232;28;20043;-73
2023/03/29 02:33:47;;;;;;;4.97;3.80;;;;;;;-0.63;50.98;95195.03;5111836;28;20029;-73
2023/03/29 02:36:27;;;;;;;4.53;3.58;;;;;;;-0.74;50.90;95173.25;5112026;28;20028;-73
2023/03/29 02:38:52;;;;;;;7.85;4.88;;;;;;;-0.74;50.98;95177.53;5074046;28;20551;-73
2023/03/29 02:41:18;;;;;;;7.32;4.18;;;;;;;-0.60;50.73;95180.47;5108715;28;20043;-73
2023/03/29 02:43:44;;;;;;;4.90;3.88;;;;;;;-0.50;50.39;95184.38;5090268;28;20028;-73
2023/03/29 02:46:10;;;;;;;4.78;3.65;;;;;;;-0.60;50.06;95175.34;5090745;28;20089;-73
2023/03/29 02:48:36;;;;;;;4.22;3.55;;;;;;;-0.55;50.06;95167.56;5092195;28;20039;-73
2023/03/29 02:51:04;;;;;;;4.45;3.55;;;;;;;-0.50;50.37;95188.66;5074223;28;20043;-73
2023/03/29 02:53:33;;;;;;;5.13;3.45;;;;;;;-0.74;50.80;95168.16;5123918;27;20080;-73
2023/03/29 02:56:01;;;;;;;5.63;3.72;;;;;;;-0.56;50.39;95206.69;5110456;28;20027;-73
2023/03/29 02:58:28;;;;;;;5.95;3.92;;;;;;;-0.73;50.81;95168.97;5092468;28;20042;-73
2023/03/29 03:00:53;;;;;;;12.77;7.22;;;;;;;-0.52;50.44;95204.00;5076573;28;20043;-74
2023/03/29 03:03:19;;;;;;;7.30;4.72;;;;;;;-0.74;50.91;95193.66;5109745;28;20043;-73
2023/03/29 03:05:44;;;;;;;11.45;5.53;;;;;;;-0.65;51.21;95199.34;5124904;27;20071;-74
2023/03/29 03:08:10;;;;;;;6.25;4.38;;;;;;;-0.55;51.37;95198.19;5082221;28;20024;-73
2023/03/29 03:10:35;;;;;;;5.32;4.28;;;;;;;-0.67;50.84;95199.41;5109751;28;20043;-73
2023/03/29 03:13:01;;;;;;;5.50;3.95;;;;;;;-0.76;51.63;95200.53;5091631;28;20019;-74
2023/03/29 03:15:26;;;;;;;8.48;4.10;;;;;;;-0.64;51.54;95219.75;5108671;28;20038;-73
2023/03/29 03:17:53;;;;;;;5.15;3.97;;;;;;;-0.92;51.55;95195.09;5143727;27;20031;-73
2023/03/29 03:20:21;;;;;;;5.38;3.70;;;;;;;-0.76;51.99;95228.59;5093069;28;20062;-73
2023/03/29 03:22:47;;;;;;;5.07;3.72;;;;;;;-1.09;52.17;95164.19;5093632;28;20023;-73
2023/03/29 03:25:18;;;;;;;4.28;3.55;;;;;;;-0.74;52.02;95223.47;5071130;28;20036;-73
2023/03/29 03:27:43;;;;;;;5.33;4.07;;;;;;;-0.68;52.37;95223.25;5075980;28;20490;-73
2023/03/29 03:30:09;;;;;;;6.00;3.72;;;;;;;-0.77;52.09;95218.47;5092692;28;20114;-73
2023/03/29 03:32:35;;;;;;;10.85;5.75;;;;;;;-0.74;51.18;95234.50;5110377;28;20030;-74
2023/03/29 03:35:01;;;;;;;5.55;3.72;;;;;;;-0.79;51.39;95225.31;5091972;28;20031;-73
2023/03/29 03:37:27;;;;;;;5.95;3.60;;;;;;;-0.74;52.01;95224.28;5076131;28;20417;-73
2023/03/29 03:39:53;;;;;;;6.28;3.33;;;;;;;-0.93;51.61;95203.63;5092471;28;20039;-74
2023/03/29 03:42:19;;;;;;;5.60;3.88;;;;;;;-0.91;51.59;95212.06;5108961;28;20027;-74
2023/03/29 03:44:44;;;;;;;4.40;3.53;;;;;;;-0.78;51.57;95235.50;5091723;28;20473;-73
2023/03/29 03:47:12;;;;;;;4.80;3.28;;;;;;;-0.78;51.18;95234.63;5092537;28;20028;-73
2023/03/29 03:49:38;;;;;;;5.10;3.75;;;;;;;-0.86;51.12;95213.63;5110036;28;20031;-73
2023/03/29 03:52:03;;;;;;;5.03;3.50;;;;;;;-0.79;50.51;95231.25;5093468;28;20062;-73
2023/03/29 03:54:28;;;;;;;4.75;3.30;;;;;;;-0.81;49.99;95235.56;5092869;28;20034;-73
2023/03/29 03:56:54;;;;;;;4.57;3.60;;;;;;;-0.79;49.95;95243.19;5109256;28;20409;-73
2023/03/29 03:59:21;;;;;;;4.60;3.47;;;;;;;-0.86;50.03;95240.00;5092664;28;20050;-73
2023/03/29 04:01:46;;;;;;;5.03;3.42;;;;;;;-0.75;49.76;95260.91;5095396;28;20039;-74
2023/03/29 04:04:13;;;;;;;7.30;4.90;;;;;;;-0.97;49.72;95227.56;5096029;28;20437;-74
2023/03/29 04:06:38;;;;;;;7.05;3.78;;;;;;;-0.81;49.68;95257.69;5114591;28;20051;-73
2023/03/29 04:09:04;;;;;;;7.20;3.45;;;;;;;-0.83;49.38;95249.28;5115182;28;20039;-73
2023/03/29 04:11:29;;;;;;;4.20;3.05;;;;;;;-0.83;49.37;95247.56;5115142;28;20046;-73
2023/03/29 04:13:56;;;;;;;5.03;3.33;;;;;;;-0.96;49.52;95244.53;5096722;28;20032;-73
2023/03/29 04:16:22;;;;;;;5.00;3.15;;;;;;;-0.85;49.77;95272.28;5114378;28;20477;-73
2023/03/29 04:18:47;;;;;;;5.47;3.70;;;;;;;-0.88;49.01;95253.69;5096282;28;20039;-73
2023/03/29 04:21:13;;;;;;;3.85;2.70;;;;;;;-0.86;48.76;95259.53;5113342;28;20028;-74
2023/03/29 04:23:39;;;;;;;4.30;3.10;;;;;;;-0.79;48.60;95261.03;5096175;28;20020;-73
2023/03/29 04:26:05;;;;;;;4.22;2.92;;;;;;;-0.79;47.78;95261.03;5112815;28;20059;-73
2023/03/29 04:28:31;;;;;;;3.75;2.75;;;;;;;-1.10;47.64;95226.28;5096569;28;20497;-73
2023/03/29 04:30:57;;;;;;;4.35;2.53;;;;;;;-0.83;47.55;95260.31;5113003;28;20042;-74
2023/03/29 04:33:22;;;;;;;4.00;2.40;;;;;;;-0.68;47.06;95274.28;5109912;27;20035;-73
2023/03/29 04:35:48;;;;;;;3.80;2.60;;;;;;;-0.92;47.17;95243.56;5086213;28;20037;-73
2023/03/29 04:38:13;;;;;;;5.40;3.28;;;;;;;-0.76;47.39;95266.88;5076104;28;20132;-73
2023/03/29 04:40:39;;;;;;;5.95;3.58;;;;;;;-0.75;47.43;95272.84;5099265;27;20034;-73
2023/03/29 04:43:05;;;;;;;6.60;3.17;;;;;;;-0.75;47.44;95262.63;5111025;28;20062;-73
2023/03/29 04:45:30;;;;;;;4.78;2.80;;;;;;;-0.71;47.57;95276.94;5091317;28;20120;-73
2023/03/29 04:47:58;;;;;;;4.68;3.20;;;;;;;-0.87;47.57;95263.81;5095199;28;20040;-73
2023/03/29 04:50:24;;;;;;;4.45;3.00;;;;;;;-0.70;47.14;95281.16;5108601;28;20032;-73
2023/03/29 04:52:49;;;;;;;4.35;2.90;;;;;;;-0.71;47.53;95287.97;5091043;28;20412;-74
2023/03/29 04:55:15;;;;;;;6.25;4.22;;;;;;;-0.71;47.49;95289.69;5108800;28;20119;-73
2023/03/29 04:57:43;;;;;;;6.68;4.00;;;;;;;-0.74;47.56;95271.94;5107868;28;20533;-73
2023/03/29 05:00:15;;;;;;;45.25;16.45;;;;;;;-0.55;47.34;95285.78;5092044;28;20031;-73
2023/03/29 05:02:44;;;;;;;94.15;29.23;;;;;;;-0.53;47.58;95299.34;5108862;27;20036;-73
2023/03/29 05:05:10;;;;;;;86.00;30.38;;;;;;;-0.61;47.56;95293.63;5090689;28;20060;-73
2023/03/29 05:07:35;;;;;;;24.77;9.82;;;;;;;-0.66;47.39;95297.22;5091811;28;20027;-73
2023/03/29 05:10:01;;;;;;;45.72;19.65;;;;;;;-0.59;47.15;95291.84;5092035;28;20494;-73
2023/03/29 05:12:27;;;;;;;26.80;12.05;;;;;;;-0.03;45.44;95321.53;5073848;28;20043;-73
2023/03/29 05:14:52;;;;;;;29.67;13.98;;;;;;;1.22;43.96;95297.47;5091367;28;20054;-74
2023/03/29 05:17:18;;;;;;;13.35;8.15;;;;;;;2.44;40.78;95307.00;5090691;28;20213;-74
2023/03/29 05:19:43;;;;;;;14.13;8.32;;;;;;;3.85;38.01;95315.97;5091583;28;20044;-74
2023/03/29 05:22:08;;;;;;;4.95;3.00;;;;;;;5.14;34.80;95319.69;5071552;28;20039;-74
2023/03/29 05:24:34;;;;;;;14.45;9.52;;;;;;;6.75;32.45;95310.63;5107108;28;20128;-75
2023/03/29 05:27:00;;;;;;;5.95;4.13;;;;;;;7.97;29.72;95298.75;5107965;28;20031;-74
2023/03/29 05:29:25;;;;;;;5.53;3.05;;;;;;;8.87;27.85;95323.81;5090070;28;20027;-75
2023/03/29 05:31:51;;;;;;;5.68;3.85;;;;;;;7.90;28.82;95325.91;5105637;28;20066;-74
2023/03/29 05:34:17;;;;;;;6.00;3.80;;;;;;;7.69;29.53;95336.72;5089041;28;20059;-74
2023/03/29 05:36:44;;;;;;;4.53;3.30;;;;;;;7.35;29.41;95337.97;5090932;28;20031;-75
2023/03/29 05:39:10;;;;;;;14.45;8.07;;;;;;;7.25;30.05;95332.56;5091373;28;20027;-74
2023/03/29 05:41:35;;;;;;;26.92;13.02;;;;;;;7.04;30.68;95344.19;5107567;27;20422;-75
2023/03/29 05:44:01;;;;;;;5.82;3.58;;;;;;;6.06;31.78;95350.75;5090739;28;20034;-74
2023/03/29 05:46:26;;;;;;;6.07;2.95;;;;;;;5.44;33.27;95353.28;5107510;28;20036;-74
2023/03/29 05:48:52;;;;;;;5.45;3.50;;;;;;;5.08;34.14;95356.06;5071343;28;20035;-74
2023/03/29 05:51:23;;;;;;;4.38;2.80;;;;;;;4.73;34.88;95357.91;5087868;28;20092;-74
2023/03/29 05:53:49;;;;;;;3.65;2.70;;;;;;;4.28;35.65;95349.84;5089597;28;20084;-74
2023/03/29 05:56:15;;;;;;;6.72;3.30;;;;;;;4.39;36.16;95354.47;5072261;28;20027;-74
2023/03/29 05:58:41;;;;;;;9.07;4.45;;;;;;;4.37;36.31;95359.66;5106317;28;20045;-74
2023/03/29 06:01:11;;;;;;;4.85;3.33;;;;;;;4.05;36.12;95335.56;5105228;28;20036;-74
2023/03/29 06:03:37;;;;;;;3.17;2.60;;;;;;;3.77;36.86;95374.59;5105026;28;20119;-73
2023/03/29 06:06:03;;;;;;;10.77;6.63;;;;;;;3.76;36.70;95339.50;5106108;28;20123;-73
2023/03/29 06:08:28;;;;;;;4.90;2.72;;;;;;;3.52;37.47;95347.47;5088838;28;20031;-73
2023/03/29 06:11:04;;;;;;;5.70;3.00;;;;;;;3.28;37.56;95338.34;5106217;28;20034;-77
2023/03/29 06:13:30;;;;;;;6.22;3.75;;;;;;;3.30;38.42;95334.78;5087528;28;20083;-79
2023/03/29 06:15:56;;;;;;;4.00;2.75;;;;;;;3.19;38.22;95343.91;5105241;28;20349;-74
2023/03/29 06:18:22;;;;;;;4.63;3.00;;;;;;;3.22;38.78;95342.03;5106985;28;20069;-74
2023/03/29 06:20:51;;;;;;;6.03;3.10;;;;;;;3.01;38.74;95345.53;5073595;27;20042;-74
2023/03/29 06:23:17;;;;;;;4.32;3.17;;;;;;;3.06;39.43;95382.94;5101355;28;20024;-74
2023/03/29 06:25:43;;;;;;;3.70;2.88;;;;;;;2.64;38.46;95345.44;5072366;28;21297;-74
2023/03/29 06:28:10;;;;;;;4.78;3.10;;;;;;;2.76;38.50;95348.38;5087576;28;20409;-76
2023/03/29 06:30:36;;;;;;;16.88;8.25;;;;;;;2.74;38.09;95357.88;5103738;28;20528;-76
2023/03/29 06:33:02;;;;;;;10.27;6.00;;;;;;;2.61;38.61;95366.09;5065265;28;20028;-76
2023/03/29 06:35:27;;;;;;;6.78;4.18;;;;;;;2.48;39.37;95344.44;5103828;28;20036;-76
2023/03/29 06:37:53;;;;;;;6.28;4.28;;;;;;;2.73;39.43;95372.44;5104772;28;20051;-76
2023/03/29 06:40:20;;;;;;;4.78;3.20;;;;;;;2.82;38.99;95377.19;5072410;28;20047;-76
2023/03/29 06:42:46;;;;;;;3.40;2.70;;;;;;;3.06;38.23;95384.69;5088216;28;20036;-76
2023/03/29 06:45:12;;;;;;;3.10;2.28;;;;;;;2.84;38.37;95380.50;5073474;28;20510;-76
2023/03/29 06:47:38;;;;;;;4.00;2.47;;;;;;;2.84;38.55;95389.91;5074104;28;20046;-76
2023/03/29 06:50:04;;;;;;;3.17;2.20;;;;;;;2.69;39.07;95392.25;5104113;28;20493;-76
2023/03/29 06:52:30;;;;;;;3.20;2.60;;;;;;;2.84;38.81;95387.34;5070969;28;20024;-76
2023/03/29 06:54:55;;;;;;;2.85;2.20;;;;;;;2.85;38.99;95391.59;5107097;28;20036;-76
2023/03/29 06:57:21;;;;;;;3.60;2.38;;;;;;;2.95;39.52;95400.56;5106295;27;20493;-76
2023/03/29 06:59:47;;;;;;;6.38;2.70;;;;;;;3.02;39.40;95371.16;5102991;28;20042;-76
2023/03/29 07:02:12;;;;;;;7.40;3.83;;;;;;;3.34;38.51;95367.16;5088309;28;20405;-76
2023/03/29 07:04:40;;;;;;;8.77;3.70;;;;;;;3.62;38.19;95376.13;5088037;28;20123;-76
2023/03/29 07:07:10;;;;;;;7.80;3.78;;;;;;;3.98;37.31;95372.72;5089361;28;20035;-76
2023/03/29 07:09:38;;;;;;;4.40;3.00;;;;;;;3.75;37.59;95373.84;5089544;28;20473;-76
2023/03/29 07:12:04;;;;;;;4.32;3.08;;;;;;;3.92;37.01;95319.88;5088817;28;20030;-76
2023/03/29 07:14:30;;;;;;;4.53;3.58;;;;;;;4.52;36.28;95377.84;5089235;28;20027;-76
2023/03/29 07:16:57;;;;;;;10.10;7.43;;;;;;;4.43;35.96;95364.53;5087634;28;20020;-77
2023/03/29 07:19:24;;;;;;;4.85;3.50;;;;;;;4.51;35.32;95376.16;5089517;28;20363;-76
2023/03/29 07:21:50;;;;;;;7.85;3.80;;;;;;;4.68;34.78;95379.56;5070981;28;20493;-76
2023/03/29 07:24:16;;;;;;;3.88;3.28;;;;;;;4.71;35.07;95358.00;5088354;28;20028;-77
2023/03/29 07:26:42;;;;;;;3.65;2.97;;;;;;;4.66;35.04;95355.63;5104184;27;20530;-77
2023/03/29 07:29:08;;;;;;;9.38;5.80;;;;;;;4.85;34.95;95376.13;5087404;28;20516;-76
2023/03/29 07:31:37;;;;;;;7.32;4.10;;;;;;;4.79;34.95;95371.31;5102641;28;20067;-76
2023/03/29 07:34:04;;;;;;;4.68;2.95;;;;;;;4.19;34.26;95298.88;5105387;28;20024;-76
2023/03/29 07:36:29;;;;;;;5.13;3.17;;;;;;;4.59;34.10;95300.22;5109631;27;20110;-76
2023/03/29 07:39:00;;;;;;;4.22;2.90;;;;;;;5.10;35.06;95352.50;5111001;28;20173;-76
2023/03/29 07:41:26;;;;;;;4.70;2.38;;;;;;;5.24;33.83;95369.00;5092289;28;20124;-77
2023/03/29 07:43:51;;;;;;;3.72;2.15;;;;;;;5.42;33.43;95373.13;5076637;28;20019;-76
2023/03/29 07:46:18;;;;;;;5.47;2.72;;;;;;;5.48;33.66;95361.66;5105911;28;20609;-76
2023/03/29 07:48:43;;;;;;;4.85;3.15;;;;;;;5.53;32.95;95380.31;5111540;28;20031;-77
2023/03/29 07:51:09;;;;;;;4.28;2.65;;;;;;;5.72;33.12;95380.97;5092069;28;20035;-76
2023/03/29 07:53:35;;;;;;;7.43;4.18;;;;;;;5.66;33.22;95367.59;5108624;28;20024;-77
2023/03/29 07:56:00;;;;;;;5.75;3.60;;;;;;;5.81;32.89;95370.13;5109658;28;20024;-77
2023/03/29 07:58:26;;;;;;;3.95;2.60;;;;;;;5.56;32.83;95331.16;5075284;28;20235;-77
2023/03/29 08:00:51;;;;;;;3.22;2.13;;;;;;;5.58;32.37;95347.38;5109289;28;20038;-76
2023/03/29 08:03:17;;;;;;;4.35;3.05;;;;;;;5.74;32.33;95355.94;5074415;28;20047;-77
2023/03/29 08:05:43;;;;;;;25.45;17.38;;;;;;;5.30;32.56;95324.84;5091852;28;20273;-76
2023/03/29 08:08:08;;;;;;;32.03;18.20;;;;;;;5.39;31.97;95314.03;5109233;28;20030;-76
2023/03/29 08:10:35;;;;;;;9.98;6.32;;;;;;;5.76;31.19;95345.53;5110520;28;20036;-77
2023/03/29 08:13:03;;;;;;;12.48;8.07;;;;;;;5.61;30.94;95293.09;5091149;28;20390;-77
2023/03/29 08:15:28;;;;;;;8.40;4.70;;;;;;;5.92;31.73;95335.19;5093134;28;20118;-77
2023/03/29 08:17:54;;;;;;;5.40;1.95;;;;;;;5.89;32.34;95341.34;5110465;28;20101;-77
2023/03/29 08:20:19;;;;;;;2.80;1.70;;;;;;;6.14;30.92;95340.84;5110543;28;20061;-77
2023/03/29 08:22:45;;;;;;;2.42;1.80;;;;;;;5.88;30.99;95292.44;5107871;28;20032;-77
2023/03/29 08:25:11;;;;;;;3.40;1.70;;;;;;;6.16;31.13;95341.59;5075749;28;20684;-77
2023/03/29 08:27:36;;;;;;;4.38;2.17;;;;;;;6.22;30.95;95314.59;5074832;28;20093;-77
2023/03/29 08:30:06;;;;;;;5.05;3.08;;;;;;;5.93;30.54;95293.00;5074859;28;20432;-77
2023/03/29 08:32:32;;;;;;;10.48;7.75;;;;;;;6.07;31.22;95336.09;5074810;28;20050;-77
2023/03/29 08:34:58;;;;;;;9.77;7.15;;;;;;;5.57;30.43;95255.50;5091664;28;20058;-77
2023/03/29 08:37:24;;;;;;;4.05;2.72;;;;;;;6.08;30.80;95341.19;5091659;28;20259;-77
2023/03/29 08:39:50;;;;;;;5.55;3.80;;;;;;;6.02;30.59;95318.31;5091866;28;20048;-77
2023/03/29 08:42:23;;;;;;;5.93;3.72;;;;;;;6.28;30.53;95326.31;5073877;28;20028;-77
2023/03/29 08:45:08;;;;;;;5.30;3.65;;;;;;;6.17;29.95;95343.22;5092495;28;20053;-77
2023/03/29 08:47:49;;;;;;;4.25;1.80;;;;;;;6.01;30.50;95347.59;5089761;28;20035;-77
2023/03/29 08:50:15;;;;;;;2.63;1.58;;;;;;;5.93;30.50;95354.91;5110437;28;20035;-77
2023/03/29 08:53:02;;;;;;;3.78;1.67;;;;;;;5.38;30.05;95317.53;5090740;28;20028;-77
2023/03/29 08:55:36;;;;;;;3.03;1.50;;;;;;;5.80;29.89;95355.59;5093754;28;20732;-77
2023/03/29 08:58:01;;;;;;;13.23;6.85;;;;;;;5.82;29.47;95330.56;5092662;28;20032;-77
2023/03/29 09:00:31;;;;;;;2.63;1.48;;;;;;;5.77;29.81;95340.28;5075228;28;20039;-77
2023/03/29 09:02:58;;;;;;;4.40;2.80;;;;;;;5.66;30.57;95288.50;5107430;28;20435;-77
2023/03/29 09:05:36;;;;;;;3.83;2.17;;;;;;;6.24;29.07;95334.25;5091267;28;20043;-78
2023/03/29 09:08:02;;;;;;;3.10;2.05;;;;;;;6.13;29.03;95331.44;5091366;28;20024;-78
2023/03/29 09:10:33;;;;;;;2.88;1.38;;;;;;;6.33;27.67;95337.22;5108389;28;20084;-78
2023/03/29 09:12:58;;;;;;;;;;;;;;;6.38;28.54;95337.75;5107519;28;20039;-77
2023/03/29 09:15:44;;;;;;;2.83;1.70;;;;;;;6.39;27.57;95339.44;5107820;28;19919;-78
2023/03/29 09:18:21;;;;;;;3.83;1.80;;;;;;;6.06;28.56;95294.00;5108326;28;20047;-77
2023/03/29 09:20:47;;;;;;;2.28;1.55;;;;;;;6.47;28.61;95314.00;5074956;28;20287;-77
2023/03/29 09:23:43;;;;;;;2.53;1.60;;;;;;;6.40;29.25;95317.84;5106597;28;20036;-77
2023/03/29 09:26:41;;;;;;;2.45;1.40;;;;;;;6.32;28.93;95318.28;5074877;28;20066;-77
2023/03/29 09:29:18;;;;;;;2.60;1.35;;;;;;;6.35;28.18;95294.06;5103065;28;20075;-78
2023/03/29 09:31:44;;;;;;;2.15;1.10;;;;;;;6.42;28.85;95306.53;5106485;28;20089;-77
2023/03/29 09:34:12;;;;;;;3.55;1.30;;;;;;;6.21;28.09;95277.66;5107942;28;20024;-77
2023/03/29 09:36:52;;;;;;;1.98;1.00;;;;;;;5.84;27.16;95273.72;5074495;28;20035;-77
2023/03/29 09:39:19;;;;;;;2.45;1.40;;;;;;;5.91;28.15;95282.78;5108686;28;20027;-77
2023/03/29 09:41:49;;;;;;;3.60;1.52;;;;;;;6.34;29.79;95287.25;5090357;28;20032;-77
2023/03/29 09:44:17;;;;;;;3.22;1.42;;;;;;;6.69;29.15;95290.34;5090511;28;20023;-77
2023/03/29 09:46:44;;;;;;;2.78;1.52;;;;;;;7.01;29.19;95292.72;5090530;28;20033;-77
2023/03/29 09:49:16;;;;;;;4.60;1.80;;;;;;;6.98;28.66;95309.22;5068257;28;20020;-77
2023/03/29 09:51:42;;;;;;;3.78;1.67;;;;;;;6.81;28.68;95296.50;5100835;27;20492;-77
2023/03/29 09:54:09;;;;;;;2.25;1.45;;;;;;;6.97;29.26;95305.00;5071734;28;20032;-77
2023/03/29 09:56:35;;;;;;;3.38;1.77;;;;;;;6.98;28.05;95310.97;5087849;28;20048;-78
2023/03/29 09:59:00;;;;;;;5.13;3.00;;;;;;;7.11;28.07;95320.47;5105784;28;20035;-78
2023/03/29 10:01:32;;;;;;;3.38;2.35;;;;;;;7.10;28.05;95303.31;5107682;28;20027;-77
2023/03/29 10:03:57;;;;;;;5.10;4.20;;;;;;;7.14;28.07;95304.78;5090900;28;20027;-78
2023/03/29 10:06:24;;;;;;;3.88;1.75;;;;;;;7.07;27.37;95267.31;5102945;28;20109;-79
2023/03/29 10:08:51;;;;;;;3.50;1.65;;;;;;;6.96;26.84;95264.56;5107283;28;20464;-78
2023/03/29 10:11:33;;;;;;;2.17;1.40;;;;;;;6.99;24.80;95243.72;5069983;28;20435;-78
2023/03/29 10:14:01;;;;;;;2.70;1.70;;;;;;;7.38;24.74;95288.66;5106590;28;20401;-78
2023/03/29 10:16:37;;;;;;;2.00;1.17;;;;;;;6.62;25.11;95204.66;5107771;28;20036;-79
2023/03/29 10:19:35;;;;;;;9.52;8.52;;;;;;;7.30;24.41;95319.31;5090654;28;20020;-79
2023/03/29 10:22:06;;;;;;;3.72;1.33;;;;;;;6.93;24.49;95311.25;5099103;28;20048;-78
2023/03/29 10:24:32;;;;;;;3.00;1.92;;;;;;;6.93;23.35;95282.84;5106437;28;20026;-78
2023/03/29 10:27:01;;;;;;;6.88;5.00;;;;;;;7.07;23.97;95313.81;5072621;28;20043;-79
2023/03/29 10:29:27;;;;;;;1.90;1.20;;;;;;;6.57;24.13;95214.44;5073022;28;20030;-79
2023/03/29 10:31:52;;;;;;;2.13;1.10;;;;;;;7.06;24.38;95322.50;5104818;28;20471;-79
2023/03/29 10:34:18;;;;;;;3.50;3.00;;;;;;;6.56;23.83;95235.19;5089643;28;20080;-79
2023/03/29 10:36:50;;;;;;;3.20;2.53;;;;;;;6.69;23.03;95229.19;5103509;27;20035;-79
2023/03/29 10:39:19;;;;;;;5.65;4.75;;;;;;;7.04;23.36;95269.25;5091905;28;20024;-79
2023/03/29 10:41:44;;;;;;;3.10;2.28;;;;;;;7.21;25.29;95289.72;5103200;27;20058;-78
2023/03/29 10:44:25;;;;;;;2.90;1.25;;;;;;;7.15;24.01;95290.09;5104859;28;20031;-79
2023/03/29 10:46:50;;;;;;;3.10;2.20;;;;;;;7.23;23.91;95281.88;5072064;28;20031;-79
2023/03/29 10:49:20;;;;;;;16.23;14.13;;;;;;;7.22;23.60;95268.13;5107497;27;20326;-81
2023/03/29 10:51:46;;;;;;;5.72;3.97;;;;;;;7.45;23.59;95289.94;5071664;28;20036;-78
2023/03/29 10:54:13;;;;;;;2.70;1.38;;;;;;;7.22;23.52;95303.50;5103102;27;20517;-78
2023/03/29 10:56:41;;;;;;;5.40;2.85;;;;;;;7.13;24.14;95279.88;5103444;28;20039;-78
2023/03/29 10:59:28;;;;;;;5.90;3.85;;;;;;;7.24;24.20;95273.19;5088992;28;20064;-78
2023/03/29 11:02:03;;;;;;;3.15;1.52;;;;;;;7.35;23.53;95270.78;5069366;28;20588;-78
2023/03/29 11:04:33;;;;;;;4.07;1.88;;;;;;;7.35;23.29;95252.69;5107758;28;20050;-79
2023/03/29 11:07:32;;;;;;;3.55;1.80;;;;;;;7.31;23.26;95262.38;5109599;28;20504;-79
2023/03/29 11:10:03;;;;;;;5.38;2.20;;;;;;;7.36;23.14;95241.44;5112081;28;20093;-79
2023/03/29 11:12:47;;;;;;;;;;;;;;;7.52;24.21;95239.53;5118466;28;20031;-78
2023/03/29 11:15:29;;;;;;;7.63;4.22;;;;;;;7.08;23.13;95180.34;5116561;28;20393;-78
2023/03/29 11:18:34;;;;;;;4.10;2.50;;;;;;;7.63;22.88;95238.00;5135334;27;20057;-78
2023/03/29 11:21:37;;;;;;;1.88;1.27;;;;;;;7.41;22.06;95239.38;5116260;28;20114;-79
2023/03/29 11:24:56;;;;;;;4.53;1.13;;;;;;;7.48;22.82;95243.22;5116042;27;20074;-79
2023/03/29 11:27:28;;;;;;;8.90;3.63;;;;;;;7.10;23.89;95158.66;5054740;28;20051;-78
2023/03/29 11:30:16;;;;;;;5.88;3.50;;;;;;;7.61;23.17;95231.19;5086626;28;20082;-78
2023/03/29 11:33:04;;;;;;;5.95;4.45;;;;;;;7.64;23.89;95244.84;5106487;28;20032;-79
2023/03/29 11:35:30;;;;;;;2.33;1.40;;;;;;;7.73;23.39;95239.06;5107885;27;20028;-79
2023/03/29 11:38:13;;;;;;;5.22;3.35;;;;;;;7.69;23.58;95242.75;5116157;27;20506;-78
2023/03/29 11:40:58;;;;;;;3.58;1.83;;;;;;;7.59;24.62;95237.38;5092288;28;20044;-78
2023/03/29 11:43:30;;;;;;;4.63;2.60;;;;;;;7.69;24.24;95261.72;5097383;28;20028;-78
2023/03/29 11:46:17;;;;;;;2.92;1.50;;;;;;;7.08;23.96;95176.00;5093007;28;20100;-78